images/hfc/images/print_logo.png
Drucken
[Quelle: ADDS]
METAR
EDDW 050350Z 24012KT 9999 SCT013 BKN027 18/17 Q1007 TEMPO 24015G25KT BKN012 =
TAF
EDDW 042300Z 0500/0524 22012KT 9999 SCT006 BKN012 TEMPO 0500/0509 3500 -DZRA BKN007 PROB30 TEMPO 0500/0507 2500 DZRA BKN004 BECMG 0507/0509 23015G25KT BECMG 0510/0512 SCT020 TEMPO 0510/0517 26020G35KT BECMG 0517/0519 24009KT =
BCMT / ECET: 02:10 / 20:49 UTC (EDDW 2020-07-05)

printlogo=no